sensor_id;sensor_type;location;lat;lon;timestamp;temperature;humidity
3727;DHT22;1879;45.876;12.300;2023-05-16T00:01:26;16.80;99.90
3727;DHT22;1879;45.876;12.300;2023-05-16T00:03:54;16.80;99.90
3727;DHT22;1879;45.876;12.300;2023-05-16T00:06:22;16.90;99.90
3727;DHT22;1879;45.876;12.300;2023-05-16T00:08:50;16.90;99.90
3727;DHT22;1879;45.876;12.300;2023-05-16T00:11:17;16.90;99.90
3727;DHT22;1879;45.876;12.300;2023-05-16T00:13:44;16.80;99.90
3727;DHT22;1879;45.876;12.300;2023-05-16T00:16:12;16.80;99.90
3727;DHT22;1879;45.876;12.300;2023-05-16T00:18:40;16.80;99.90
3727;DHT22;1879;45.876;12.300;2023-05-16T00:21:10;16.80;99.90
3727;DHT22;1879;45.876;12.300;2023-05-16T00:23:37;16.90;99.90
3727;DHT22;1879;45.876;12.300;2023-05-16T00:26:05;17.00;99.90
3727;DHT22;1879;45.876;12.300;2023-05-16T00:28:32;17.00;99.90
3727;DHT22;1879;45.876;12.300;2023-05-16T00:30:59;17.00;99.90
3727;DHT22;1879;45.876;12.300;2023-05-16T00:33:26;17.00;99.90
3727;DHT22;1879;45.876;12.300;2023-05-16T00:35:53;17.00;99.90
3727;DHT22;1879;45.876;12.300;2023-05-16T00:38:20;17.10;99.90
3727;DHT22;1879;45.876;12.300;2023-05-16T00:40:47;17.00;99.90
3727;DHT22;1879;45.876;12.300;2023-05-16T00:43:15;17.10;99.90
3727;DHT22;1879;45.876;12.300;2023-05-16T00:45:42;17.10;99.90
3727;DHT22;1879;45.876;12.300;2023-05-16T00:48:11;17.10;99.90
3727;DHT22;1879;45.876;12.300;2023-05-16T00:50:38;17.10;99.90
3727;DHT22;1879;45.876;12.300;2023-05-16T00:53:05;17.20;99.90
3727;DHT22;1879;45.876;12.300;2023-05-16T00:55:32;17.20;99.90
3727;DHT22;1879;45.876;12.300;2023-05-16T00:58:00;17.20;99.90
3727;DHT22;1879;45.876;12.300;2023-05-16T01:00:28;17.10;99.90
3727;DHT22;1879;45.876;12.300;2023-05-16T01:02:56;17.10;99.90
3727;DHT22;1879;45.876;12.300;2023-05-16T01:05:23;17.20;99.90
3727;DHT22;1879;45.876;12.300;2023-05-16T01:07:50;17.20;99.90
3727;DHT22;1879;45.876;12.300;2023-05-16T01:10:16;17.10;99.90
3727;DHT22;1879;45.876;12.300;2023-05-16T01:12:50;17.10;99.90
3727;DHT22;1879;45.876;12.300;2023-05-16T01:15:25;17.10;99.90
3727;DHT22;1879;45.876;12.300;2023-05-16T01:18:05;17.10;99.90
3727;DHT22;1879;45.876;12.300;2023-05-16T01:20:39;17.10;99.90
3727;DHT22;1879;45.876;12.300;2023-05-16T01:23:40;17.20;99.90
3727;DHT22;1879;45.876;12.300;2023-05-16T01:26:17;17.30;99.90
3727;DHT22;1879;45.876;12.300;2023-05-16T01:28:45;17.20;99.90
3727;DHT22;1879;45.876;12.300;2023-05-16T01:31:12;17.20;99.90
3727;DHT22;1879;45.876;12.300;2023-05-16T01:33:39;17.20;99.90
3727;DHT22;1879;45.876;12.300;2023-05-16T01:36:10;17.10;99.90
3727;DHT22;1879;45.876;12.300;2023-05-16T01:38:41;17.20;99.90
3727;DHT22;1879;45.876;12.300;2023-05-16T01:41:19;17.30;99.90
3727;DHT22;1879;45.876;12.300;2023-05-16T01:43:50;17.40;99.90
3727;DHT22;1879;45.876;12.300;2023-05-16T01:46:22;17.50;99.90
3727;DHT22;1879;45.876;12.300;2023-05-16T01:48:52;17.60;99.90
3727;DHT22;1879;45.876;12.300;2023-05-16T01:51:21;17.70;99.90
3727;DHT22;1879;45.876;12.300;2023-05-16T01:53:51;17.80;99.90
3727;DHT22;1879;45.876;12.300;2023-05-16T01:56:20;17.80;99.90
3727;DHT22;1879;45.876;12.300;2023-05-16T01:58:49;17.80;99.90
3727;DHT22;1879;45.876;12.300;2023-05-16T02:01:17;17.90;99.90
3727;DHT22;1879;45.876;12.300;2023-05-16T02:03:44;17.90;99.90
3727;DHT22;1879;45.876;12.300;2023-05-16T02:06:11;17.90;99.90
3727;DHT22;1879;45.876;12.300;2023-05-16T02:08:38;17.90;99.90
3727;DHT22;1879;45.876;12.300;2023-05-16T02:11:05;17.90;99.90
3727;DHT22;1879;45.876;12.300;2023-05-16T02:13:33;17.90;99.90
3727;DHT22;1879;45.876;12.300;2023-05-16T02:16:00;17.90;99.90
3727;DHT22;1879;45.876;12.300;2023-05-16T02:18:27;17.80;99.90
3727;DHT22;1879;45.876;12.300;2023-05-16T02:20:54;17.80;99.90
3727;DHT22;1879;45.876;12.300;2023-05-16T02:23:21;17.80;99.90
3727;DHT22;1879;45.876;12.300;2023-05-16T02:25:48;17.80;99.90
3727;DHT22;1879;45.876;12.300;2023-05-16T02:28:15;17.70;99.90
3727;DHT22;1879;45.876;12.300;2023-05-16T02:30:43;17.60;99.90
3727;DHT22;1879;45.876;12.300;2023-05-16T02:33:10;17.60;99.90
3727;DHT22;1879;45.876;12.300;2023-05-16T02:35:37;17.50;99.90
3727;DHT22;1879;45.876;12.300;2023-05-16T02:38:04;17.40;99.90
3727;DHT22;1879;45.876;12.300;2023-05-16T02:40:31;17.30;99.90
3727;DHT22;1879;45.876;12.300;2023-05-16T02:42:58;17.30;99.90
3727;DHT22;1879;45.876;12.300;2023-05-16T02:45:25;17.30;99.90
3727;DHT22;1879;45.876;12.300;2023-05-16T02:47:53;17.30;99.90
3727;DHT22;1879;45.876;12.300;2023-05-16T02:50:20;17.20;99.90
3727;DHT22;1879;45.876;12.300;2023-05-16T02:52:47;17.20;99.90
3727;DHT22;1879;45.876;12.300;2023-05-16T02:55:14;17.20;99.90
3727;DHT22;1879;45.876;12.300;2023-05-16T02:57:41;17.20;99.90
3727;DHT22;1879;45.876;12.300;2023-05-16T03:00:09;17.10;99.90
3727;DHT22;1879;45.876;12.300;2023-05-16T03:02:36;17.20;99.90
3727;DHT22;1879;45.876;12.300;2023-05-16T03:05:05;17.20;99.90
3727;DHT22;1879;45.876;12.300;2023-05-16T03:07:32;17.20;99.90
3727;DHT22;1879;45.876;12.300;2023-05-16T03:09:59;17.20;99.90
3727;DHT22;1879;45.876;12.300;2023-05-16T03:12:26;17.10;99.90
3727;DHT22;1879;45.876;12.300;2023-05-16T03:14:53;17.10;99.90
3727;DHT22;1879;45.876;12.300;2023-05-16T03:17:20;17.10;99.90
3727;DHT22;1879;45.876;12.300;2023-05-16T03:19:47;17.10;99.90
3727;DHT22;1879;45.876;12.300;2023-05-16T03:22:16;17.10;99.90
3727;DHT22;1879;45.876;12.300;2023-05-16T03:24:42;17.10;99.90
3727;DHT22;1879;45.876;12.300;2023-05-16T03:27:10;17.10;99.90
3727;DHT22;1879;45.876;12.300;2023-05-16T03:29:37;17.00;99.90
3727;DHT22;1879;45.876;12.300;2023-05-16T03:32:04;17.00;99.90
3727;DHT22;1879;45.876;12.300;2023-05-16T03:34:31;16.90;99.90
3727;DHT22;1879;45.876;12.300;2023-05-16T03:36:58;16.90;99.90
3727;DHT22;1879;45.876;12.300;2023-05-16T03:39:27;16.90;99.90
3727;DHT22;1879;45.876;12.300;2023-05-16T03:41:54;16.80;99.90
3727;DHT22;1879;45.876;12.300;2023-05-16T03:44:21;16.80;99.90
3727;DHT22;1879;45.876;12.300;2023-05-16T03:46:49;16.90;99.90
3727;DHT22;1879;45.876;12.300;2023-05-16T03:49:17;16.90;99.90
3727;DHT22;1879;45.876;12.300;2023-05-16T03:51:45;16.90;99.90
3727;DHT22;1879;45.876;12.300;2023-05-16T03:54:14;16.90;99.90
3727;DHT22;1879;45.876;12.300;2023-05-16T03:56:43;16.80;99.90
3727;DHT22;1879;45.876;12.300;2023-05-16T03:59:10;16.80;99.90
3727;DHT22;1879;45.876;12.300;2023-05-16T04:01:37;16.80;99.90
3727;DHT22;1879;45.876;12.300;2023-05-16T04:04:04;16.80;99.90
3727;DHT22;1879;45.876;12.300;2023-05-16T04:06:31;16.80;99.90
3727;DHT22;1879;45.876;12.300;2023-05-16T04:08:58;16.80;99.90
3727;DHT22;1879;45.876;12.300;2023-05-16T04:11:25;16.80;99.90
3727;DHT22;1879;45.876;12.300;2023-05-16T04:13:54;16.80;99.90
3727;DHT22;1879;45.876;12.300;2023-05-16T04:16:21;16.90;99.90
3727;DHT22;1879;45.876;12.300;2023-05-16T04:18:48;16.90;99.90
3727;DHT22;1879;45.876;12.300;2023-05-16T04:21:15;16.90;99.90
3727;DHT22;1879;45.876;12.300;2023-05-16T04:23:42;16.90;99.90
3727;DHT22;1879;45.876;12.300;2023-05-16T04:26:09;16.90;99.90
3727;DHT22;1879;45.876;12.300;2023-05-16T04:28:36;16.90;99.90
3727;DHT22;1879;45.876;12.300;2023-05-16T04:31:04;16.90;99.90
3727;DHT22;1879;45.876;12.300;2023-05-16T04:33:32;16.90;99.90
3727;DHT22;1879;45.876;12.300;2023-05-16T04:35:59;16.90;99.90
3727;DHT22;1879;45.876;12.300;2023-05-16T04:38:26;17.00;99.90
3727;DHT22;1879;45.876;12.300;2023-05-16T04:40:53;17.00;99.90
3727;DHT22;1879;45.876;12.300;2023-05-16T04:43:20;17.10;99.90
3727;DHT22;1879;45.876;12.300;2023-05-16T04:45:47;17.00;99.90
3727;DHT22;1879;45.876;12.300;2023-05-16T04:48:16;17.00;99.90
3727;DHT22;1879;45.876;12.300;2023-05-16T04:50:43;17.00;99.90
3727;DHT22;1879;45.876;12.300;2023-05-16T04:53:10;17.00;99.90
3727;DHT22;1879;45.876;12.300;2023-05-16T04:55:39;16.90;99.90
3727;DHT22;1879;45.876;12.300;2023-05-16T04:58:06;16.90;99.90
3727;DHT22;1879;45.876;12.300;2023-05-16T05:00:33;16.90;99.90
3727;DHT22;1879;45.876;12.300;2023-05-16T05:03:00;17.00;99.90
3727;DHT22;1879;45.876;12.300;2023-05-16T05:05:29;17.00;99.90
3727;DHT22;1879;45.876;12.300;2023-05-16T05:07:57;17.10;99.90
3727;DHT22;1879;45.876;12.300;2023-05-16T05:10:24;17.10;99.90
3727;DHT22;1879;45.876;12.300;2023-05-16T05:12:52;17.10;99.90
3727;DHT22;1879;45.876;12.300;2023-05-16T05:15:19;17.10;99.90
3727;DHT22;1879;45.876;12.300;2023-05-16T05:17:46;17.10;99.90
3727;DHT22;1879;45.876;12.300;2023-05-16T05:20:13;17.20;99.90
3727;DHT22;1879;45.876;12.300;2023-05-16T05:22:41;17.20;99.90
3727;DHT22;1879;45.876;12.300;2023-05-16T05:25:08;17.30;99.90
3727;DHT22;1879;45.876;12.300;2023-05-16T05:27:35;17.30;99.90
3727;DHT22;1879;45.876;12.300;2023-05-16T05:30:03;17.30;99.90
3727;DHT22;1879;45.876;12.300;2023-05-16T05:32:31;17.30;99.90
3727;DHT22;1879;45.876;12.300;2023-05-16T05:34:58;17.30;99.90
3727;DHT22;1879;45.876;12.300;2023-05-16T05:37:25;17.30;99.90
3727;DHT22;1879;45.876;12.300;2023-05-16T05:39:54;17.30;99.90
3727;DHT22;1879;45.876;12.300;2023-05-16T05:42:21;17.30;99.90
3727;DHT22;1879;45.876;12.300;2023-05-16T05:44:48;17.30;99.90
3727;DHT22;1879;45.876;12.300;2023-05-16T05:47:15;17.40;99.90
3727;DHT22;1879;45.876;12.300;2023-05-16T05:49:42;17.40;99.90
3727;DHT22;1879;45.876;12.300;2023-05-16T05:52:09;17.40;99.90
3727;DHT22;1879;45.876;12.300;2023-05-16T05:54:36;17.50;99.90
3727;DHT22;1879;45.876;12.300;2023-05-16T05:57:04;17.50;99.90
3727;DHT22;1879;45.876;12.300;2023-05-16T05:59:31;17.50;99.90
3727;DHT22;1879;45.876;12.300;2023-05-16T06:01:58;17.50;99.90
3727;DHT22;1879;45.876;12.300;2023-05-16T06:04:26;17.50;99.90
3727;DHT22;1879;45.876;12.300;2023-05-16T06:06:53;17.60;99.90
3727;DHT22;1879;45.876;12.300;2023-05-16T06:09:20;17.60;99.90
3727;DHT22;1879;45.876;12.300;2023-05-16T06:11:48;17.60;99.90
3727;DHT22;1879;45.876;12.300;2023-05-16T06:14:17;17.50;99.90
3727;DHT22;1879;45.876;12.300;2023-05-16T06:16:44;17.50;99.90
3727;DHT22;1879;45.876;12.300;2023-05-16T06:19:11;17.50;99.90
3727;DHT22;1879;45.876;12.300;2023-05-16T06:21:40;17.50;99.90
3727;DHT22;1879;45.876;12.300;2023-05-16T06:24:08;17.30;99.90
3727;DHT22;1879;45.876;12.300;2023-05-16T06:26:36;17.30;99.90
3727;DHT22;1879;45.876;12.300;2023-05-16T06:29:03;17.20;99.90
3727;DHT22;1879;45.876;12.300;2023-05-16T06:31:31;17.10;99.90
3727;DHT22;1879;45.876;12.300;2023-05-16T06:33:58;17.10;99.90
3727;DHT22;1879;45.876;12.300;2023-05-16T06:36:25;17.10;99.90
3727;DHT22;1879;45.876;12.300;2023-05-16T06:38:52;17.00;99.90
3727;DHT22;1879;45.876;12.300;2023-05-16T06:41:19;16.90;99.90
3727;DHT22;1879;45.876;12.300;2023-05-16T06:43:46;16.90;99.90
3727;DHT22;1879;45.876;12.300;2023-05-16T06:46:13;17.00;99.90
3727;DHT22;1879;45.876;12.300;2023-05-16T06:48:42;17.00;99.90
3727;DHT22;1879;45.876;12.300;2023-05-16T06:51:09;16.90;99.90
3727;DHT22;1879;45.876;12.300;2023-05-16T06:53:36;16.90;99.90
3727;DHT22;1879;45.876;12.300;2023-05-16T06:56:04;16.90;99.90
3727;DHT22;1879;45.876;12.300;2023-05-16T06:58:32;16.80;99.90
3727;DHT22;1879;45.876;12.300;2023-05-16T07:00:59;17.00;99.90
3727;DHT22;1879;45.876;12.300;2023-05-16T07:03:27;17.00;99.90
3727;DHT22;1879;45.876;12.300;2023-05-16T07:05:55;17.10;99.90
3727;DHT22;1879;45.876;12.300;2023-05-16T07:08:23;17.10;99.90
3727;DHT22;1879;45.876;12.300;2023-05-16T07:10:50;17.20;99.90
3727;DHT22;1879;45.876;12.300;2023-05-16T07:13:18;17.30;99.90
3727;DHT22;1879;45.876;12.300;2023-05-16T07:15:45;17.20;99.90
3727;DHT22;1879;45.876;12.300;2023-05-16T07:18:12;17.10;99.90
3727;DHT22;1879;45.876;12.300;2023-05-16T07:20:39;17.10;99.90
3727;DHT22;1879;45.876;12.300;2023-05-16T07:23:08;17.10;99.90
3727;DHT22;1879;45.876;12.300;2023-05-16T07:25:35;17.20;99.90
3727;DHT22;1879;45.876;12.300;2023-05-16T07:28:02;17.50;99.90
3727;DHT22;1879;45.876;12.300;2023-05-16T07:30:29;17.70;99.90
3727;DHT22;1879;45.876;12.300;2023-05-16T07:32:56;18.00;99.90
3727;DHT22;1879;45.876;12.300;2023-05-16T07:35:23;18.20;99.90
3727;DHT22;1879;45.876;12.300;2023-05-16T07:37:50;18.20;99.90
3727;DHT22;1879;45.876;12.300;2023-05-16T07:40:18;18.20;99.90
3727;DHT22;1879;45.876;12.300;2023-05-16T07:42:50;18.20;99.90
3727;DHT22;1879;45.876;12.300;2023-05-16T07:45:17;18.20;99.90
3727;DHT22;1879;45.876;12.300;2023-05-16T07:47:44;18.10;99.90
3727;DHT22;1879;45.876;12.300;2023-05-16T07:50:11;18.10;99.90
3727;DHT22;1879;45.876;12.300;2023-05-16T07:52:38;18.10;99.90
3727;DHT22;1879;45.876;12.300;2023-05-16T07:55:06;18.10;99.90
3727;DHT22;1879;45.876;12.300;2023-05-16T07:57:34;18.00;99.90
3727;DHT22;1879;45.876;12.300;2023-05-16T08:00:02;17.90;99.90
3727;DHT22;1879;45.876;12.300;2023-05-16T08:02:29;17.70;99.90
3727;DHT22;1879;45.876;12.300;2023-05-16T08:04:56;17.70;99.90
3727;DHT22;1879;45.876;12.300;2023-05-16T08:07:23;17.90;99.90
3727;DHT22;1879;45.876;12.300;2023-05-16T08:09:50;17.90;99.90
3727;DHT22;1879;45.876;12.300;2023-05-16T08:12:17;18.20;99.90
3727;DHT22;1879;45.876;12.300;2023-05-16T08:14:45;18.40;99.90
3727;DHT22;1879;45.876;12.300;2023-05-16T08:17:12;18.60;99.90
3727;DHT22;1879;45.876;12.300;2023-05-16T08:19:39;18.70;99.90
3727;DHT22;1879;45.876;12.300;2023-05-16T08:22:08;18.70;99.90
3727;DHT22;1879;45.876;12.300;2023-05-16T08:24:35;18.80;99.90
3727;DHT22;1879;45.876;12.300;2023-05-16T08:27:02;18.90;99.90
3727;DHT22;1879;45.876;12.300;2023-05-16T08:29:29;19.00;99.90
3727;DHT22;1879;45.876;12.300;2023-05-16T08:31:58;19.00;99.90
3727;DHT22;1879;45.876;12.300;2023-05-16T08:34:25;19.00;99.90
3727;DHT22;1879;45.876;12.300;2023-05-16T08:36:52;19.00;99.90
3727;DHT22;1879;45.876;12.300;2023-05-16T08:39:20;19.00;99.90
3727;DHT22;1879;45.876;12.300;2023-05-16T08:41:47;18.90;99.90
3727;DHT22;1879;45.876;12.300;2023-05-16T08:44:14;18.90;99.90
3727;DHT22;1879;45.876;12.300;2023-05-16T08:46:49;18.80;99.90
3727;DHT22;1879;45.876;12.300;2023-05-16T08:49:19;18.70;99.90
3727;DHT22;1879;45.876;12.300;2023-05-16T08:51:47;18.60;99.90
3727;DHT22;1879;45.876;12.300;2023-05-16T08:54:15;18.60;99.90
3727;DHT22;1879;45.876;12.300;2023-05-16T08:56:43;18.60;99.90
3727;DHT22;1879;45.876;12.300;2023-05-16T08:59:11;18.70;99.90
3727;DHT22;1879;45.876;12.300;2023-05-16T09:01:38;18.80;99.90
3727;DHT22;1879;45.876;12.300;2023-05-16T09:04:07;18.80;99.90
3727;DHT22;1879;45.876;12.300;2023-05-16T09:06:36;18.80;99.90
3727;DHT22;1879;45.876;12.300;2023-05-16T09:09:04;18.70;99.90
3727;DHT22;1879;45.876;12.300;2023-05-16T09:11:32;18.60;99.90
3727;DHT22;1879;45.876;12.300;2023-05-16T09:14:00;18.60;99.90
3727;DHT22;1879;45.876;12.300;2023-05-16T09:16:27;18.50;99.90
3727;DHT22;1879;45.876;12.300;2023-05-16T09:18:56;18.50;99.90
3727;DHT22;1879;45.876;12.300;2023-05-16T09:21:26;18.60;99.90
3727;DHT22;1879;45.876;12.300;2023-05-16T09:23:55;18.60;99.90
3727;DHT22;1879;45.876;12.300;2023-05-16T09:26:22;18.50;99.90
3727;DHT22;1879;45.876;12.300;2023-05-16T09:28:52;18.50;99.90
3727;DHT22;1879;45.876;12.300;2023-05-16T09:31:20;18.50;99.90
3727;DHT22;1879;45.876;12.300;2023-05-16T09:33:47;18.60;99.90
3727;DHT22;1879;45.876;12.300;2023-05-16T09:36:15;18.70;99.90
3727;DHT22;1879;45.876;12.300;2023-05-16T09:38:42;18.90;99.90
3727;DHT22;1879;45.876;12.300;2023-05-16T09:41:11;19.00;99.90
3727;DHT22;1879;45.876;12.300;2023-05-16T09:43:39;19.10;99.90
3727;DHT22;1879;45.876;12.300;2023-05-16T09:46:06;19.20;99.90
3727;DHT22;1879;45.876;12.300;2023-05-16T09:48:33;19.30;99.90
3727;DHT22;1879;45.876;12.300;2023-05-16T09:51:00;19.30;99.90
3727;DHT22;1879;45.876;12.300;2023-05-16T09:53:31;19.30;99.90
3727;DHT22;1879;45.876;12.300;2023-05-16T09:56:00;19.30;99.90
3727;DHT22;1879;45.876;12.300;2023-05-16T09:58:29;19.30;99.90
3727;DHT22;1879;45.876;12.300;2023-05-16T10:01:00;19.40;99.90
3727;DHT22;1879;45.876;12.300;2023-05-16T10:03:28;19.40;99.90
3727;DHT22;1879;45.876;12.300;2023-05-16T10:05:59;19.40;99.90
3727;DHT22;1879;45.876;12.300;2023-05-16T10:08:26;19.40;99.90
3727;DHT22;1879;45.876;12.300;2023-05-16T10:10:54;19.40;99.90
3727;DHT22;1879;45.876;12.300;2023-05-16T10:13:23;19.30;99.90
3727;DHT22;1879;45.876;12.300;2023-05-16T10:15:54;19.30;99.90
3727;DHT22;1879;45.876;12.300;2023-05-16T10:18:24;19.30;99.90
3727;DHT22;1879;45.876;12.300;2023-05-16T10:20:54;19.30;99.90
3727;DHT22;1879;45.876;12.300;2023-05-16T10:23:21;19.30;99.90
3727;DHT22;1879;45.876;12.300;2023-05-16T10:25:50;19.30;99.90
3727;DHT22;1879;45.876;12.300;2023-05-16T10:28:17;19.30;99.90
3727;DHT22;1879;45.876;12.300;2023-05-16T10:30:45;19.30;99.90
3727;DHT22;1879;45.876;12.300;2023-05-16T10:33:14;19.20;99.90
3727;DHT22;1879;45.876;12.300;2023-05-16T10:35:42;19.20;99.90
3727;DHT22;1879;45.876;12.300;2023-05-16T10:38:10;19.30;99.90
3727;DHT22;1879;45.876;12.300;2023-05-16T10:40:39;19.30;99.90
3727;DHT22;1879;45.876;12.300;2023-05-16T10:43:07;19.30;99.90
3727;DHT22;1879;45.876;12.300;2023-05-16T10:45:38;19.30;99.90
3727;DHT22;1879;45.876;12.300;2023-05-16T10:48:06;19.40;99.90
3727;DHT22;1879;45.876;12.300;2023-05-16T10:50:38;19.50;99.90
3727;DHT22;1879;45.876;12.300;2023-05-16T10:53:13;19.60;99.90
3727;DHT22;1879;45.876;12.300;2023-05-16T10:55:44;19.50;99.90
3727;DHT22;1879;45.876;12.300;2023-05-16T10:58:11;19.40;99.60
3727;DHT22;1879;45.876;12.300;2023-05-16T11:00:38;19.30;99.90
3727;DHT22;1879;45.876;12.300;2023-05-16T11:03:21;19.20;98.20
3727;DHT22;1879;45.876;12.300;2023-05-16T11:05:51;19.10;99.30
3727;DHT22;1879;45.876;12.300;2023-05-16T11:08:19;19.10;99.90
3727;DHT22;1879;45.876;12.300;2023-05-16T11:10:47;19.00;99.90
3727;DHT22;1879;45.876;12.300;2023-05-16T11:13:14;18.80;99.90
3727;DHT22;1879;45.876;12.300;2023-05-16T11:15:44;18.70;99.90
3727;DHT22;1879;45.876;12.300;2023-05-16T11:18:15;18.80;99.90
3727;DHT22;1879;45.876;12.300;2023-05-16T11:20:43;18.80;99.90
3727;DHT22;1879;45.876;12.300;2023-05-16T11:23:22;18.80;99.90
3727;DHT22;1879;45.876;12.300;2023-05-16T11:25:52;18.90;99.90
3727;DHT22;1879;45.876;12.300;2023-05-16T11:28:20;18.80;99.90
3727;DHT22;1879;45.876;12.300;2023-05-16T11:30:49;18.80;99.90
3727;DHT22;1879;45.876;12.300;2023-05-16T11:33:17;18.80;99.90
3727;DHT22;1879;45.876;12.300;2023-05-16T11:36:02;18.90;99.90
3727;DHT22;1879;45.876;12.300;2023-05-16T11:38:31;18.90;99.90
3727;DHT22;1879;45.876;12.300;2023-05-16T11:41:02;19.30;99.90
3727;DHT22;1879;45.876;12.300;2023-05-16T11:43:36;19.60;99.90
3727;DHT22;1879;45.876;12.300;2023-05-16T11:46:04;19.80;99.60
3727;DHT22;1879;45.876;12.300;2023-05-16T11:48:31;19.80;98.00
3727;DHT22;1879;45.876;12.300;2023-05-16T11:50:58;19.60;97.90
3727;DHT22;1879;45.876;12.300;2023-05-16T11:53:26;19.70;97.80
3727;DHT22;1879;45.876;12.300;2023-05-16T11:55:55;19.60;97.40
3727;DHT22;1879;45.876;12.300;2023-05-16T11:58:24;19.60;97.70
3727;DHT22;1879;45.876;12.300;2023-05-16T12:00:52;19.70;96.90
3727;DHT22;1879;45.876;12.300;2023-05-16T12:03:19;19.70;97.10
3727;DHT22;1879;45.876;12.300;2023-05-16T12:05:52;19.80;96.80
3727;DHT22;1879;45.876;12.300;2023-05-16T12:08:19;19.90;96.10
3727;DHT22;1879;45.876;12.300;2023-05-16T12:10:49;19.90;95.80
3727;DHT22;1879;45.876;12.300;2023-05-16T12:13:19;20.00;96.40
3727;DHT22;1879;45.876;12.300;2023-05-16T12:15:46;20.00;94.40
3727;DHT22;1879;45.876;12.300;2023-05-16T12:18:14;20.10;95.30
3727;DHT22;1879;45.876;12.300;2023-05-16T12:20:43;20.30;94.80
3727;DHT22;1879;45.876;12.300;2023-05-16T12:23:10;20.40;92.80
3727;DHT22;1879;45.876;12.300;2023-05-16T12:25:39;20.50;92.40
3727;DHT22;1879;45.876;12.300;2023-05-16T12:28:11;20.70;92.80
3727;DHT22;1879;45.876;12.300;2023-05-16T12:30:41;20.90;94.00
3727;DHT22;1879;45.876;12.300;2023-05-16T12:33:10;21.20;93.60
3727;DHT22;1879;45.876;12.300;2023-05-16T12:35:38;21.20;90.30
3727;DHT22;1879;45.876;12.300;2023-05-16T12:38:05;21.20;92.20
3727;DHT22;1879;45.876;12.300;2023-05-16T12:40:33;21.20;94.20
3727;DHT22;1879;45.876;12.300;2023-05-16T12:43:02;21.20;95.00
3727;DHT22;1879;45.876;12.300;2023-05-16T12:45:29;21.20;95.20
3727;DHT22;1879;45.876;12.300;2023-05-16T12:48:03;21.10;95.00
3727;DHT22;1879;45.876;12.300;2023-05-16T12:50:32;21.00;94.90
3727;DHT22;1879;45.876;12.300;2023-05-16T12:52:59;20.90;95.10
3727;DHT22;1879;45.876;12.300;2023-05-16T12:55:26;20.80;95.10
3727;DHT22;1879;45.876;12.300;2023-05-16T12:57:54;20.70;94.00
3727;DHT22;1879;45.876;12.300;2023-05-16T13:00:22;20.70;94.10
3727;DHT22;1879;45.876;12.300;2023-05-16T13:02:56;20.70;95.10
3727;DHT22;1879;45.876;12.300;2023-05-16T13:05:50;20.70;94.40
3727;DHT22;1879;45.876;12.300;2023-05-16T13:08:20;20.70;93.10
3727;DHT22;1879;45.876;12.300;2023-05-16T13:10:58;20.70;93.10
3727;DHT22;1879;45.876;12.300;2023-05-16T13:13:31;20.60;92.50
3727;DHT22;1879;45.876;12.300;2023-05-16T13:16:19;20.60;93.00
3727;DHT22;1879;45.876;12.300;2023-05-16T13:22:28;20.40;91.10
3727;DHT22;1879;45.876;12.300;2023-05-16T13:25:17;20.30;92.40
3727;DHT22;1879;45.876;12.300;2023-05-16T13:42:13;19.40;95.00
3727;DHT22;1879;45.876;12.300;2023-05-16T13:44:40;19.30;95.60
3727;DHT22;1879;45.876;12.300;2023-05-16T13:47:08;19.20;96.20
3727;DHT22;1879;45.876;12.300;2023-05-16T13:49:35;19.10;96.50
3727;DHT22;1879;45.876;12.300;2023-05-16T13:52:02;19.00;97.10
3727;DHT22;1879;45.876;12.300;2023-05-16T13:54:29;19.10;98.00
3727;DHT22;1879;45.876;12.300;2023-05-16T13:56:56;19.00;98.40
3727;DHT22;1879;45.876;12.300;2023-05-16T13:59:24;19.00;99.00
3727;DHT22;1879;45.876;12.300;2023-05-16T14:01:51;19.00;98.70
3727;DHT22;1879;45.876;12.300;2023-05-16T14:04:18;18.90;99.20
3727;DHT22;1879;45.876;12.300;2023-05-16T14:06:45;18.90;99.90
3727;DHT22;1879;45.876;12.300;2023-05-16T14:09:12;18.80;99.90
3727;DHT22;1879;45.876;12.300;2023-05-16T14:11:39;18.70;99.90
3727;DHT22;1879;45.876;12.300;2023-05-16T14:14:06;18.60;99.90
3727;DHT22;1879;45.876;12.300;2023-05-16T14:16:35;18.60;99.90
3727;DHT22;1879;45.876;12.300;2023-05-16T14:19:02;18.60;99.90
3727;DHT22;1879;45.876;12.300;2023-05-16T14:21:28;18.70;99.90
3727;DHT22;1879;45.876;12.300;2023-05-16T14:23:55;18.70;99.90
3727;DHT22;1879;45.876;12.300;2023-05-16T14:26:22;18.80;99.90
3727;DHT22;1879;45.876;12.300;2023-05-16T14:28:50;18.80;99.90
3727;DHT22;1879;45.876;12.300;2023-05-16T14:31:17;18.90;99.90
3727;DHT22;1879;45.876;12.300;2023-05-16T14:33:45;19.00;99.90
3727;DHT22;1879;45.876;12.300;2023-05-16T14:36:12;18.90;99.90
3727;DHT22;1879;45.876;12.300;2023-05-16T14:38:39;18.90;99.90
3727;DHT22;1879;45.876;12.300;2023-05-16T14:41:06;19.00;99.90
3727;DHT22;1879;45.876;12.300;2023-05-16T14:43:33;19.00;99.90
3727;DHT22;1879;45.876;12.300;2023-05-16T14:46:00;19.00;99.90
3727;DHT22;1879;45.876;12.300;2023-05-16T14:48:29;19.00;99.90
3727;DHT22;1879;45.876;12.300;2023-05-16T14:50:57;19.00;99.90
3727;DHT22;1879;45.876;12.300;2023-05-16T14:53:27;18.90;99.90
3727;DHT22;1879;45.876;12.300;2023-05-16T14:55:54;18.90;99.90
3727;DHT22;1879;45.876;12.300;2023-05-16T14:58:21;18.80;99.90
3727;DHT22;1879;45.876;12.300;2023-05-16T15:00:49;18.80;99.90
3727;DHT22;1879;45.876;12.300;2023-05-16T15:03:16;18.80;99.90
3727;DHT22;1879;45.876;12.300;2023-05-16T15:05:43;18.90;99.90
3727;DHT22;1879;45.876;12.300;2023-05-16T15:08:11;18.90;99.90
3727;DHT22;1879;45.876;12.300;2023-05-16T15:10:39;18.90;99.90
3727;DHT22;1879;45.876;12.300;2023-05-16T15:13:06;18.80;99.90
3727;DHT22;1879;45.876;12.300;2023-05-16T15:15:33;18.80;99.90
3727;DHT22;1879;45.876;12.300;2023-05-16T15:18:02;18.80;99.90
3727;DHT22;1879;45.876;12.300;2023-05-16T15:20:29;18.80;99.90
3727;DHT22;1879;45.876;12.300;2023-05-16T15:22:56;18.80;99.90
3727;DHT22;1879;45.876;12.300;2023-05-16T15:25:24;18.70;99.90
3727;DHT22;1879;45.876;12.300;2023-05-16T15:27:51;18.70;99.90
3727;DHT22;1879;45.876;12.300;2023-05-16T15:30:18;18.70;99.90
3727;DHT22;1879;45.876;12.300;2023-05-16T15:32:45;18.60;99.90
3727;DHT22;1879;45.876;12.300;2023-05-16T15:35:12;18.60;99.90
3727;DHT22;1879;45.876;12.300;2023-05-16T15:37:39;18.60;99.90
3727;DHT22;1879;45.876;12.300;2023-05-16T15:40:07;18.50;99.90
3727;DHT22;1879;45.876;12.300;2023-05-16T15:42:36;18.50;99.90
3727;DHT22;1879;45.876;12.300;2023-05-16T15:45:04;18.40;99.90
3727;DHT22;1879;45.876;12.300;2023-05-16T15:47:31;18.30;99.90
3727;DHT22;1879;45.876;12.300;2023-05-16T15:50:00;18.10;99.90
3727;DHT22;1879;45.876;12.300;2023-05-16T15:52:27;18.10;99.90
3727;DHT22;1879;45.876;12.300;2023-05-16T15:54:54;17.90;99.90
3727;DHT22;1879;45.876;12.300;2023-05-16T15:57:21;17.90;99.90
3727;DHT22;1879;45.876;12.300;2023-05-16T15:59:50;17.90;99.90
3727;DHT22;1879;45.876;12.300;2023-05-16T16:02:17;17.80;99.90
3727;DHT22;1879;45.876;12.300;2023-05-16T16:04:44;17.70;99.90
3727;DHT22;1879;45.876;12.300;2023-05-16T16:07:11;17.70;99.90
3727;DHT22;1879;45.876;12.300;2023-05-16T16:09:38;17.60;99.90